sensor_id;sensor_type;location;lat;lon;timestamp;noise_LAeq;noise_LA_min;noise_LA_max;noise_LA01;noise_LA95
66399;Laerm;54877;51.504;3.894;2023-04-04T00:01:02;33.60;32.30;34.70;;
66399;Laerm;54877;51.504;3.894;2023-04-04T00:03:27;33.65;32.41;42.83;;
66399;Laerm;54877;51.504;3.894;2023-04-04T00:05:52;33.58;32.26;34.74;;
66399;Laerm;54877;51.504;3.894;2023-04-04T00:08:18;33.59;32.25;40.20;;
66399;Laerm;54877;51.504;3.894;2023-04-04T00:10:43;33.57;32.25;34.61;;
66399;Laerm;54877;51.504;3.894;2023-04-04T00:13:08;33.56;32.20;34.67;;
66399;Laerm;54877;51.504;3.894;2023-04-04T00:15:34;33.56;32.23;34.76;;
66399;Laerm;54877;51.504;3.894;2023-04-04T00:18:01;33.57;32.25;35.97;;
66399;Laerm;54877;51.504;3.894;2023-04-04T00:20:28;33.58;32.39;34.84;;
66399;Laerm;54877;51.504;3.894;2023-04-04T00:22:53;33.55;32.32;34.77;;
66399;Laerm;54877;51.504;3.894;2023-04-04T00:25:19;33.55;32.29;34.68;;
66399;Laerm;54877;51.504;3.894;2023-04-04T00:27:44;33.56;32.44;34.94;;
66399;Laerm;54877;51.504;3.894;2023-04-04T00:30:11;33.56;32.27;34.83;;
66399;Laerm;54877;51.504;3.894;2023-04-04T00:32:37;33.57;32.32;34.68;;
66399;Laerm;54877;51.504;3.894;2023-04-04T00:35:02;33.56;32.36;35.36;;
66399;Laerm;54877;51.504;3.894;2023-04-04T00:37:28;33.56;32.02;35.04;;
66399;Laerm;54877;51.504;3.894;2023-04-04T00:39:53;33.59;32.27;37.98;;
66399;Laerm;54877;51.504;3.894;2023-04-04T00:42:18;33.55;32.26;34.86;;
66399;Laerm;54877;51.504;3.894;2023-04-04T00:44:44;33.56;32.40;34.99;;
66399;Laerm;54877;51.504;3.894;2023-04-04T00:47:09;33.56;32.24;35.42;;
66399;Laerm;54877;51.504;3.894;2023-04-04T00:49:35;33.55;32.29;34.73;;
66399;Laerm;54877;51.504;3.894;2023-04-04T00:52:01;33.62;32.50;38.12;;
66399;Laerm;54877;51.504;3.894;2023-04-04T00:54:28;33.57;32.34;34.96;;
66399;Laerm;54877;51.504;3.894;2023-04-04T00:56:54;33.57;32.30;36.21;;
66399;Laerm;54877;51.504;3.894;2023-04-04T00:59:25;33.63;32.38;40.10;;
66399;Laerm;54877;51.504;3.894;2023-04-04T01:01:52;33.57;32.34;34.72;;
66399;Laerm;54877;51.504;3.894;2023-04-04T01:04:17;33.57;32.33;38.15;;
66399;Laerm;54877;51.504;3.894;2023-04-04T01:06:43;33.56;32.35;35.86;;
66399;Laerm;54877;51.504;3.894;2023-04-04T01:09:10;33.57;31.87;37.01;;
66399;Laerm;54877;51.504;3.894;2023-04-04T01:11:36;33.58;32.18;37.83;;
66399;Laerm;54877;51.504;3.894;2023-04-04T01:14:02;33.64;32.40;35.24;;
66399;Laerm;54877;51.504;3.894;2023-04-04T01:16:27;33.61;32.41;34.79;;
66399;Laerm;54877;51.504;3.894;2023-04-04T01:18:53;33.56;32.21;34.86;;
66399;Laerm;54877;51.504;3.894;2023-04-04T01:21:21;33.56;32.22;37.60;;
66399;Laerm;54877;51.504;3.894;2023-04-04T01:24:02;33.54;32.31;34.65;;
66399;Laerm;54877;51.504;3.894;2023-04-04T01:26:29;33.55;32.13;34.66;;
66399;Laerm;54877;51.504;3.894;2023-04-04T01:28:58;33.55;32.25;34.64;;
66399;Laerm;54877;51.504;3.894;2023-04-04T01:37:00;33.55;32.23;34.74;;
66399;Laerm;54877;51.504;3.894;2023-04-04T01:39:31;33.54;32.23;34.90;;
66399;Laerm;54877;51.504;3.894;2023-04-04T01:41:58;33.52;32.35;34.60;;
66399;Laerm;54877;51.504;3.894;2023-04-04T01:44:25;33.53;32.27;34.75;;
66399;Laerm;54877;51.504;3.894;2023-04-04T01:46:54;33.50;32.28;34.67;;
66399;Laerm;54877;51.504;3.894;2023-04-04T01:49:21;33.54;32.15;41.18;;
66399;Laerm;54877;51.504;3.894;2023-04-04T01:51:48;33.56;32.20;39.27;;
66399;Laerm;54877;51.504;3.894;2023-04-04T01:54:13;33.50;32.25;34.80;;
66399;Laerm;54877;51.504;3.894;2023-04-04T01:56:39;33.52;32.35;34.83;;
66399;Laerm;54877;51.504;3.894;2023-04-04T01:59:04;33.49;32.30;34.69;;
66399;Laerm;54877;51.504;3.894;2023-04-04T02:01:29;33.52;32.21;34.61;;
66399;Laerm;54877;51.504;3.894;2023-04-04T02:03:55;33.50;32.26;34.77;;
66399;Laerm;54877;51.504;3.894;2023-04-04T02:06:20;33.50;32.24;37.28;;
66399;Laerm;54877;51.504;3.894;2023-04-04T02:08:46;33.51;32.18;34.89;;
66399;Laerm;54877;51.504;3.894;2023-04-04T02:11:12;33.51;32.28;34.76;;
66399;Laerm;54877;51.504;3.894;2023-04-04T02:13:37;33.52;32.22;34.66;;
66399;Laerm;54877;51.504;3.894;2023-04-04T02:16:05;33.52;32.15;34.95;;
66399;Laerm;54877;51.504;3.894;2023-04-04T02:18:31;33.54;32.46;34.80;;
66399;Laerm;54877;51.504;3.894;2023-04-04T02:20:57;33.56;32.36;34.68;;
66399;Laerm;54877;51.504;3.894;2023-04-04T02:23:22;33.56;32.19;34.80;;
66399;Laerm;54877;51.504;3.894;2023-04-04T02:25:51;33.57;32.12;34.81;;
66399;Laerm;54877;51.504;3.894;2023-04-04T02:28:16;33.56;32.13;34.68;;
66399;Laerm;54877;51.504;3.894;2023-04-04T02:30:42;33.56;32.20;34.66;;
66399;Laerm;54877;51.504;3.894;2023-04-04T02:33:07;33.58;32.16;34.80;;
66399;Laerm;54877;51.504;3.894;2023-04-04T02:35:33;33.57;32.02;34.96;;
66399;Laerm;54877;51.504;3.894;2023-04-04T02:37:58;33.63;32.31;41.15;;
66399;Laerm;54877;51.504;3.894;2023-04-04T02:40:23;33.58;32.34;34.87;;
66399;Laerm;54877;51.504;3.894;2023-04-04T02:42:49;34.34;32.42;43.39;;
66399;Laerm;54877;51.504;3.894;2023-04-04T02:45:14;39.03;32.33;56.03;;
66399;Laerm;54877;51.504;3.894;2023-04-04T02:47:40;33.68;32.35;39.11;;
66399;Laerm;54877;51.504;3.894;2023-04-04T02:50:08;33.56;32.37;34.85;;
66399;Laerm;54877;51.504;3.894;2023-04-04T02:52:33;33.56;32.16;35.45;;
66399;Laerm;54877;51.504;3.894;2023-04-04T02:54:59;33.55;32.27;35.00;;
66399;Laerm;54877;51.504;3.894;2023-04-04T02:57:24;33.58;32.31;34.79;;
66399;Laerm;54877;51.504;3.894;2023-04-04T02:59:49;33.59;32.05;34.72;;
66399;Laerm;54877;51.504;3.894;2023-04-04T03:02:14;33.59;32.35;34.86;;
66399;Laerm;54877;51.504;3.894;2023-04-04T03:04:40;33.60;32.38;34.77;;
66399;Laerm;54877;51.504;3.894;2023-04-04T03:07:05;33.61;32.44;34.86;;
66399;Laerm;54877;51.504;3.894;2023-04-04T03:09:30;33.60;32.23;34.71;;
66399;Laerm;54877;51.504;3.894;2023-04-04T03:11:56;33.59;32.47;34.90;;
66399;Laerm;54877;51.504;3.894;2023-04-04T03:14:21;33.62;32.34;34.95;;
66399;Laerm;54877;51.504;3.894;2023-04-04T03:16:47;34.74;32.27;51.59;;
66399;Laerm;54877;51.504;3.894;2023-04-04T03:19:16;33.59;32.26;35.33;;
66399;Laerm;54877;51.504;3.894;2023-04-04T03:21:41;33.71;32.13;35.35;;
66399;Laerm;54877;51.504;3.894;2023-04-04T03:24:07;33.77;31.89;39.70;;
66399;Laerm;54877;51.504;3.894;2023-04-04T03:26:32;33.62;32.26;34.78;;
66399;Laerm;54877;51.504;3.894;2023-04-04T03:28:58;33.62;32.36;34.93;;
66399;Laerm;54877;51.504;3.894;2023-04-04T03:31:23;33.61;32.19;34.67;;
66399;Laerm;54877;51.504;3.894;2023-04-04T03:33:48;34.08;32.40;39.22;;
66399;Laerm;54877;51.504;3.894;2023-04-04T03:36:14;33.66;32.10;35.04;;
66399;Laerm;54877;51.504;3.894;2023-04-04T03:38:40;33.66;32.27;34.94;;
66399;Laerm;54877;51.504;3.894;2023-04-04T03:41:06;33.68;32.42;34.93;;
66399;Laerm;54877;51.504;3.894;2023-04-04T03:43:32;33.70;32.46;35.03;;
66399;Laerm;54877;51.504;3.894;2023-04-04T03:46:01;33.75;32.37;34.98;;
66399;Laerm;54877;51.504;3.894;2023-04-04T03:48:28;33.77;32.54;34.92;;
66399;Laerm;54877;51.504;3.894;2023-04-04T03:50:53;33.76;32.44;34.93;;
66399;Laerm;54877;51.504;3.894;2023-04-04T03:53:18;33.76;32.45;37.78;;
66399;Laerm;54877;51.504;3.894;2023-04-04T03:55:44;48.41;32.32;66.18;;
66399;Laerm;54877;51.504;3.894;2023-04-04T03:58:09;33.82;32.59;35.23;;
66399;Laerm;54877;51.504;3.894;2023-04-04T04:00:35;33.93;32.30;36.44;;
66399;Laerm;54877;51.504;3.894;2023-04-04T04:03:00;33.97;32.23;36.95;;
66399;Laerm;54877;51.504;3.894;2023-04-04T04:05:25;33.98;32.46;37.64;;
66399;Laerm;54877;51.504;3.894;2023-04-04T04:07:51;34.12;32.54;43.79;;
66399;Laerm;54877;51.504;3.894;2023-04-04T04:10:17;34.03;32.64;37.73;;
66399;Laerm;54877;51.504;3.894;2023-04-04T04:12:42;34.02;32.54;37.51;;
66399;Laerm;54877;51.504;3.894;2023-04-04T04:15:08;34.06;32.70;38.81;;
66399;Laerm;54877;51.504;3.894;2023-04-04T04:17:35;34.14;32.74;39.84;;
66399;Laerm;54877;51.504;3.894;2023-04-04T04:20:02;34.15;32.41;40.29;;
66399;Laerm;54877;51.504;3.894;2023-04-04T04:22:28;34.26;32.58;39.71;;
66399;Laerm;54877;51.504;3.894;2023-04-04T04:24:54;34.95;32.69;45.12;;
66399;Laerm;54877;51.504;3.894;2023-04-04T04:27:19;34.98;32.76;42.90;;
66399;Laerm;54877;51.504;3.894;2023-04-04T04:29:44;42.55;32.66;64.81;;
66399;Laerm;54877;51.504;3.894;2023-04-04T04:32:15;34.16;32.60;36.65;;
66399;Laerm;54877;51.504;3.894;2023-04-04T04:34:41;35.07;32.61;48.33;;
66399;Laerm;54877;51.504;3.894;2023-04-04T04:37:06;34.48;32.81;45.77;;
66399;Laerm;54877;51.504;3.894;2023-04-04T04:39:32;34.32;32.84;42.70;;
66399;Laerm;54877;51.504;3.894;2023-04-04T04:41:57;34.77;32.84;46.91;;
66399;Laerm;54877;51.504;3.894;2023-04-04T04:44:22;34.85;32.83;43.65;;
66399;Laerm;54877;51.504;3.894;2023-04-04T04:46:48;34.56;32.56;49.64;;
66399;Laerm;54877;51.504;3.894;2023-04-04T04:49:13;38.09;32.75;53.95;;
66399;Laerm;54877;51.504;3.894;2023-04-04T04:51:38;36.03;32.40;54.14;;
66399;Laerm;54877;51.504;3.894;2023-04-04T04:54:04;39.35;32.54;56.60;;
66399;Laerm;54877;51.504;3.894;2023-04-04T04:56:29;34.08;32.61;39.19;;
66399;Laerm;54877;51.504;3.894;2023-04-04T04:58:55;46.80;32.59;66.62;;
66399;Laerm;54877;51.504;3.894;2023-04-04T05:01:21;34.19;32.71;41.24;;
66399;Laerm;54877;51.504;3.894;2023-04-04T05:03:46;43.64;32.95;60.81;;
66399;Laerm;54877;51.504;3.894;2023-04-04T05:06:12;34.15;32.50;37.82;;
66399;Laerm;54877;51.504;3.894;2023-04-04T05:08:37;34.36;32.56;42.12;;
66399;Laerm;54877;51.504;3.894;2023-04-04T05:11:02;34.85;32.85;45.67;;
66399;Laerm;54877;51.504;3.894;2023-04-04T05:13:28;40.25;32.78;57.61;;
66399;Laerm;54877;51.504;3.894;2023-04-04T05:15:53;43.45;32.72;63.14;;
66399;Laerm;54877;51.504;3.894;2023-04-04T05:18:19;36.71;32.39;54.93;;
66399;Laerm;54877;51.504;3.894;2023-04-04T05:20:49;40.41;33.08;56.30;;
66399;Laerm;54877;51.504;3.894;2023-04-04T05:23:16;39.53;32.84;60.84;;
66399;Laerm;54877;51.504;3.894;2023-04-04T05:25:41;38.45;32.74;61.86;;
66399;Laerm;54877;51.504;3.894;2023-04-04T05:28:07;35.84;32.67;49.17;;
66399;Laerm;54877;51.504;3.894;2023-04-04T05:30:33;43.65;32.90;59.87;;
66399;Laerm;54877;51.504;3.894;2023-04-04T05:32:58;45.11;32.86;66.28;;
66399;Laerm;54877;51.504;3.894;2023-04-04T05:35:23;44.13;33.61;64.82;;
66399;Laerm;54877;51.504;3.894;2023-04-04T05:37:50;43.26;32.69;62.23;;
66399;Laerm;54877;51.504;3.894;2023-04-04T05:40:15;43.34;32.62;63.64;;
66399;Laerm;54877;51.504;3.894;2023-04-04T05:42:40;41.17;32.78;59.56;;
66399;Laerm;54877;51.504;3.894;2023-04-04T05:45:07;41.90;33.03;58.91;;
66399;Laerm;54877;51.504;3.894;2023-04-04T05:47:33;44.80;32.95;65.55;;
66399;Laerm;54877;51.504;3.894;2023-04-04T05:49:58;44.47;32.71;65.10;;
66399;Laerm;54877;51.504;3.894;2023-04-04T05:52:23;43.58;32.83;62.10;;
66399;Laerm;54877;51.504;3.894;2023-04-04T05:54:49;45.56;33.19;62.28;;
66399;Laerm;54877;51.504;3.894;2023-04-04T05:57:15;43.14;33.28;61.73;;
66399;Laerm;54877;51.504;3.894;2023-04-04T05:59:40;43.94;33.82;63.43;;
66399;Laerm;54877;51.504;3.894;2023-04-04T06:02:06;49.66;33.47;68.00;;
66399;Laerm;54877;51.504;3.894;2023-04-04T06:04:32;42.01;33.45;60.77;;
66399;Laerm;54877;51.504;3.894;2023-04-04T06:06:57;49.25;33.33;66.72;;
66399;Laerm;54877;51.504;3.894;2023-04-04T06:09:22;36.17;33.45;54.13;;
66399;Laerm;54877;51.504;3.894;2023-04-04T06:11:48;36.39;33.64;46.69;;
66399;Laerm;54877;51.504;3.894;2023-04-04T06:14:13;36.01;33.66;49.02;;
66399;Laerm;54877;51.504;3.894;2023-04-04T06:16:39;37.73;33.69;60.07;;
66399;Laerm;54877;51.504;3.894;2023-04-04T06:19:04;48.34;33.58;68.19;;
66399;Laerm;54877;51.504;3.894;2023-04-04T06:21:30;48.75;33.81;63.98;;
66399;Laerm;54877;51.504;3.894;2023-04-04T06:23:55;45.44;33.32;64.05;;
66399;Laerm;54877;51.504;3.894;2023-04-04T06:26:21;46.80;33.53;63.52;;
66399;Laerm;54877;51.504;3.894;2023-04-04T06:28:47;60.13;33.85;84.32;;
66399;Laerm;54877;51.504;3.894;2023-04-04T06:31:14;36.78;33.64;54.62;;
66399;Laerm;54877;51.504;3.894;2023-04-04T06:33:39;43.71;33.58;60.45;;
66399;Laerm;54877;51.504;3.894;2023-04-04T06:36:05;48.13;33.49;62.72;;
66399;Laerm;54877;51.504;3.894;2023-04-04T06:38:30;37.37;33.76;53.09;;
66399;Laerm;54877;51.504;3.894;2023-04-04T06:40:56;43.09;33.23;66.44;;
66399;Laerm;54877;51.504;3.894;2023-04-04T06:43:22;43.59;33.19;62.12;;
66399;Laerm;54877;51.504;3.894;2023-04-04T06:45:48;42.48;33.26;63.19;;
66399;Laerm;54877;51.504;3.894;2023-04-04T06:48:13;40.74;33.84;58.68;;
66399;Laerm;54877;51.504;3.894;2023-04-04T06:50:38;39.66;33.68;56.05;;
66399;Laerm;54877;51.504;3.894;2023-04-04T06:53:04;40.40;33.14;55.77;;
66399;Laerm;54877;51.504;3.894;2023-04-04T06:55:32;35.05;32.57;47.66;;
66399;Laerm;54877;51.504;3.894;2023-04-04T06:57:57;46.10;32.83;62.91;;
66399;Laerm;54877;51.504;3.894;2023-04-04T07:00:22;41.12;33.92;57.61;;
66399;Laerm;54877;51.504;3.894;2023-04-04T07:02:48;37.36;33.84;60.41;;
66399;Laerm;54877;51.504;3.894;2023-04-04T07:05:14;43.42;34.13;61.43;;
66399;Laerm;54877;51.504;3.894;2023-04-04T07:07:42;36.70;33.35;62.03;;
66399;Laerm;54877;51.504;3.894;2023-04-04T07:10:08;37.35;33.52;57.26;;
66399;Laerm;54877;51.504;3.894;2023-04-04T07:12:33;40.46;33.53;57.50;;
66399;Laerm;54877;51.504;3.894;2023-04-04T07:14:59;37.74;33.39;59.14;;
66399;Laerm;54877;51.504;3.894;2023-04-04T07:17:24;35.69;33.36;52.03;;
66399;Laerm;54877;51.504;3.894;2023-04-04T07:19:49;37.28;33.37;57.42;;
66399;Laerm;54877;51.504;3.894;2023-04-04T07:22:15;36.69;34.18;47.01;;
66399;Laerm;54877;51.504;3.894;2023-04-04T07:24:40;37.18;33.80;56.36;;
66399;Laerm;54877;51.504;3.894;2023-04-04T07:27:06;37.87;33.80;60.84;;
66399;Laerm;54877;51.504;3.894;2023-04-04T07:29:32;40.31;33.39;57.18;;
66399;Laerm;54877;51.504;3.894;2023-04-04T07:31:57;36.04;32.95;48.36;;
66399;Laerm;54877;51.504;3.894;2023-04-04T07:34:22;39.21;33.11;51.50;;
66399;Laerm;54877;51.504;3.894;2023-04-04T07:36:50;61.14;35.01;80.79;;
66399;Laerm;54877;51.504;3.894;2023-04-04T07:39:15;37.53;33.39;52.29;;
66399;Laerm;54877;51.504;3.894;2023-04-04T07:41:41;35.86;32.89;57.04;;
66399;Laerm;54877;51.504;3.894;2023-04-04T07:44:06;35.17;32.94;54.57;;
66399;Laerm;54877;51.504;3.894;2023-04-04T07:46:32;35.32;32.99;47.22;;
66399;Laerm;54877;51.504;3.894;2023-04-04T07:48:57;46.23;32.96;66.64;;
66399;Laerm;54877;51.504;3.894;2023-04-04T07:51:23;35.46;33.13;48.98;;
66399;Laerm;54877;51.504;3.894;2023-04-04T07:53:54;38.92;33.22;58.94;;
66399;Laerm;54877;51.504;3.894;2023-04-04T07:56:20;35.66;32.92;49.77;;
66399;Laerm;54877;51.504;3.894;2023-04-04T07:58:46;35.29;32.74;54.31;;
66399;Laerm;54877;51.504;3.894;2023-04-04T08:01:11;35.16;32.90;46.12;;
66399;Laerm;54877;51.504;3.894;2023-04-04T08:03:36;34.78;32.92;49.83;;
66399;Laerm;54877;51.504;3.894;2023-04-04T08:06:02;39.78;33.02;63.26;;
66399;Laerm;54877;51.504;3.894;2023-04-04T08:08:27;42.47;33.39;57.36;;
66399;Laerm;54877;51.504;3.894;2023-04-04T08:10:53;43.52;33.28;62.51;;
66399;Laerm;54877;51.504;3.894;2023-04-04T08:13:19;35.80;33.19;50.45;;
66399;Laerm;54877;51.504;3.894;2023-04-04T08:15:44;37.02;33.77;58.33;;
66399;Laerm;54877;51.504;3.894;2023-04-04T08:18:10;37.05;33.78;46.13;;
66399;Laerm;54877;51.504;3.894;2023-04-04T08:20:35;44.15;33.71;63.28;;
66399;Laerm;54877;51.504;3.894;2023-04-04T08:23:01;44.22;34.15;60.21;;
66399;Laerm;54877;51.504;3.894;2023-04-04T08:25:26;38.43;34.21;57.84;;
66399;Laerm;54877;51.504;3.894;2023-04-04T08:27:51;37.25;34.12;49.61;;
66399;Laerm;54877;51.504;3.894;2023-04-04T08:30:17;37.44;34.64;57.71;;
66399;Laerm;54877;51.504;3.894;2023-04-04T08:32:42;44.14;33.89;61.14;;
66399;Laerm;54877;51.504;3.894;2023-04-04T08:35:10;45.81;34.16;64.85;;
66399;Laerm;54877;51.504;3.894;2023-04-04T08:37:36;43.84;34.22;59.76;;
66399;Laerm;54877;51.504;3.894;2023-04-04T08:40:02;42.02;34.75;60.45;;
66399;Laerm;54877;51.504;3.894;2023-04-04T08:42:29;37.04;34.36;44.42;;
66399;Laerm;54877;51.504;3.894;2023-04-04T08:44:58;37.66;33.81;48.85;;
66399;Laerm;54877;51.504;3.894;2023-04-04T08:47:27;36.35;34.01;49.51;;
66399;Laerm;54877;51.504;3.894;2023-04-04T08:49:58;44.65;34.17;63.28;;
66399;Laerm;54877;51.504;3.894;2023-04-04T08:52:26;37.71;34.30;58.63;;
66399;Laerm;54877;51.504;3.894;2023-04-04T08:54:53;37.77;34.53;53.24;;
66399;Laerm;54877;51.504;3.894;2023-04-04T08:57:19;37.04;34.50;55.67;;
66399;Laerm;54877;51.504;3.894;2023-04-04T08:59:45;45.83;33.95;66.46;;
66399;Laerm;54877;51.504;3.894;2023-04-04T09:03:04;36.49;34.02;59.83;;
66399;Laerm;54877;51.504;3.894;2023-04-04T09:05:22;38.43;34.14;58.42;;
66399;Laerm;54877;51.504;3.894;2023-04-04T09:07:50;45.27;34.37;63.93;;
66399;Laerm;54877;51.504;3.894;2023-04-04T09:10:15;37.75;35.00;47.98;;
66399;Laerm;54877;51.504;3.894;2023-04-04T09:12:43;46.53;34.34;62.77;;
66399;Laerm;54877;51.504;3.894;2023-04-04T09:15:09;39.94;34.92;55.11;;
66399;Laerm;54877;51.504;3.894;2023-04-04T09:17:35;36.81;34.41;45.57;;
66399;Laerm;54877;51.504;3.894;2023-04-04T09:20:02;45.83;35.00;64.83;;
66399;Laerm;54877;51.504;3.894;2023-04-04T09:22:30;44.90;34.73;63.47;;
66399;Laerm;54877;51.504;3.894;2023-04-04T09:24:59;38.43;34.60;53.21;;
66399;Laerm;54877;51.504;3.894;2023-04-04T09:27:24;46.65;35.36;65.18;;
66399;Laerm;54877;51.504;3.894;2023-04-04T09:29:50;39.05;34.99;58.54;;
66399;Laerm;54877;51.504;3.894;2023-04-04T09:32:19;37.31;34.70;54.58;;
66399;Laerm;54877;51.504;3.894;2023-04-04T09:34:46;36.70;34.47;47.86;;
66399;Laerm;54877;51.504;3.894;2023-04-04T09:37:15;38.20;34.81;52.39;;
66399;Laerm;54877;51.504;3.894;2023-04-04T09:39:41;49.61;35.07;66.30;;
66399;Laerm;54877;51.504;3.894;2023-04-04T09:42:08;42.45;34.92;60.99;;
66399;Laerm;54877;51.504;3.894;2023-04-04T09:44:34;43.23;35.23;60.60;;
66399;Laerm;54877;51.504;3.894;2023-04-04T09:47:25;42.93;34.48;59.03;;
66399;Laerm;54877;51.504;3.894;2023-04-04T09:49:51;47.17;34.48;64.50;;
66399;Laerm;54877;51.504;3.894;2023-04-04T09:52:20;37.74;34.44;60.26;;
66399;Laerm;54877;51.504;3.894;2023-04-04T09:54:56;44.55;34.56;65.05;;
66399;Laerm;54877;51.504;3.894;2023-04-04T09:57:23;48.09;36.43;66.69;;
66399;Laerm;54877;51.504;3.894;2023-04-04T09:59:49;42.47;37.05;59.95;;
66399;Laerm;54877;51.504;3.894;2023-04-04T10:02:15;47.28;36.91;65.24;;
66399;Laerm;54877;51.504;3.894;2023-04-04T10:04:41;46.15;40.24;60.19;;
66399;Laerm;54877;51.504;3.894;2023-04-04T10:07:11;42.45;37.60;51.76;;
66399;Laerm;54877;51.504;3.894;2023-04-04T10:09:37;44.90;37.16;62.73;;
66399;Laerm;54877;51.504;3.894;2023-04-04T10:12:09;42.25;35.49;55.32;;
66399;Laerm;54877;51.504;3.894;2023-04-04T10:14:35;40.51;34.52;54.50;;
66399;Laerm;54877;51.504;3.894;2023-04-04T10:17:06;42.51;34.32;59.81;;
66399;Laerm;54877;51.504;3.894;2023-04-04T10:19:37;36.94;34.27;49.44;;
66399;Laerm;54877;51.504;3.894;2023-04-04T10:22:04;46.62;35.30;62.80;;
66399;Laerm;54877;51.504;3.894;2023-04-04T10:24:30;44.29;34.66;63.89;;
66399;Laerm;54877;51.504;3.894;2023-04-04T10:26:56;38.99;34.38;57.83;;
66399;Laerm;54877;51.504;3.894;2023-04-04T10:29:22;36.66;34.36;53.44;;
66399;Laerm;54877;51.504;3.894;2023-04-04T10:31:55;37.07;34.33;52.62;;
66399;Laerm;54877;51.504;3.894;2023-04-04T10:34:42;39.86;34.13;60.44;;
66399;Laerm;54877;51.504;3.894;2023-04-04T10:37:14;41.56;34.14;58.84;;
66399;Laerm;54877;51.504;3.894;2023-04-04T10:39:52;36.46;34.16;56.63;;
66399;Laerm;54877;51.504;3.894;2023-04-04T10:42:20;38.05;34.00;64.44;;
66399;Laerm;54877;51.504;3.894;2023-04-04T10:44:47;43.99;34.06;62.38;;
66399;Laerm;54877;51.504;3.894;2023-04-04T10:47:16;46.51;34.33;62.14;;
66399;Laerm;54877;51.504;3.894;2023-04-04T10:49:43;44.08;36.16;63.91;;
66399;Laerm;54877;51.504;3.894;2023-04-04T10:52:11;43.00;34.52;60.98;;
66399;Laerm;54877;51.504;3.894;2023-04-04T10:54:37;37.36;34.37;55.63;;
66399;Laerm;54877;51.504;3.894;2023-04-04T10:57:03;38.54;34.26;52.15;;
66399;Laerm;54877;51.504;3.894;2023-04-04T10:59:29;40.94;34.50;63.11;;
66399;Laerm;54877;51.504;3.894;2023-04-04T11:01:56;38.12;34.21;53.72;;
66399;Laerm;54877;51.504;3.894;2023-04-04T11:04:37;40.01;34.15;66.12;;
66399;Laerm;54877;51.504;3.894;2023-04-04T11:09:50;38.04;34.29;59.61;;
66399;Laerm;54877;51.504;3.894;2023-04-04T11:12:19;44.06;34.04;62.26;;
66399;Laerm;54877;51.504;3.894;2023-04-04T11:20:09;37.37;33.95;52.89;;
66399;Laerm;54877;51.504;3.894;2023-04-04T11:22:35;43.06;34.06;62.94;;
66399;Laerm;54877;51.504;3.894;2023-04-04T11:27:49;37.24;34.35;58.68;;
66399;Laerm;54877;51.504;3.894;2023-04-04T11:30:18;37.10;34.35;52.29;;
66399;Laerm;54877;51.504;3.894;2023-04-04T11:32:47;42.43;34.81;58.25;;
66399;Laerm;54877;51.504;3.894;2023-04-04T11:35:13;37.70;34.88;57.16;;
66399;Laerm;54877;51.504;3.894;2023-04-04T11:40:18;43.38;34.76;60.30;;
66399;Laerm;54877;51.504;3.894;2023-04-04T11:42:50;39.46;34.48;58.18;;
66399;Laerm;54877;51.504;3.894;2023-04-04T11:45:24;43.09;34.70;61.07;;
66399;Laerm;54877;51.504;3.894;2023-04-04T11:47:49;40.95;34.49;63.21;;
66399;Laerm;54877;51.504;3.894;2023-04-04T11:50:17;45.86;34.52;65.08;;
66399;Laerm;54877;51.504;3.894;2023-04-04T11:52:43;44.29;34.26;63.35;;
66399;Laerm;54877;51.504;3.894;2023-04-04T11:55:16;47.87;34.55;64.62;;
66399;Laerm;54877;51.504;3.894;2023-04-04T11:57:42;37.27;34.09;51.71;;
66399;Laerm;54877;51.504;3.894;2023-04-04T12:00:08;37.65;34.43;53.42;;
66399;Laerm;54877;51.504;3.894;2023-04-04T12:02:34;36.02;34.37;50.15;;
66399;Laerm;54877;51.504;3.894;2023-04-04T12:04:59;47.06;34.46;64.61;;
66399;Laerm;54877;51.504;3.894;2023-04-04T12:07:26;42.51;34.44;60.16;;
66399;Laerm;54877;51.504;3.894;2023-04-04T12:09:52;48.18;34.84;67.15;;
66399;Laerm;54877;51.504;3.894;2023-04-04T12:12:18;47.41;34.67;62.86;;
66399;Laerm;54877;51.504;3.894;2023-04-04T12:14:44;42.37;34.54;63.95;;
66399;Laerm;54877;51.504;3.894;2023-04-04T12:17:10;41.33;34.79;58.33;;
66399;Laerm;54877;51.504;3.894;2023-04-04T12:19:37;40.07;35.46;54.20;;
66399;Laerm;54877;51.504;3.894;2023-04-04T12:22:03;37.65;34.49;52.86;;
66399;Laerm;54877;51.504;3.894;2023-04-04T12:24:28;38.70;35.90;53.81;;
66399;Laerm;54877;51.504;3.894;2023-04-04T12:26:54;39.93;36.02;65.90;;
66399;Laerm;54877;51.504;3.894;2023-04-04T12:29:21;46.71;36.04;60.93;;
66399;Laerm;54877;51.504;3.894;2023-04-04T12:31:48;47.77;34.75;66.96;;
66399;Laerm;54877;51.504;3.894;2023-04-04T12:36:45;37.52;35.54;44.76;;
66399;Laerm;54877;51.504;3.894;2023-04-04T12:39:11;43.46;37.70;64.90;;
66399;Laerm;54877;51.504;3.894;2023-04-04T12:41:56;45.68;38.44;61.47;;
66399;Laerm;54877;51.504;3.894;2023-04-04T12:44:41;45.57;37.95;61.51;;
66399;Laerm;54877;51.504;3.894;2023-04-04T12:47:08;43.93;39.27;51.34;;
66399;Laerm;54877;51.504;3.894;2023-04-04T12:52:03;42.95;38.54;53.51;;
66399;Laerm;54877;51.504;3.894;2023-04-04T12:54:35;48.01;38.33;65.71;;
66399;Laerm;54877;51.504;3.894;2023-04-04T12:57:02;46.27;39.17;63.63;;
66399;Laerm;54877;51.504;3.894;2023-04-04T12:59:35;46.19;35.92;61.41;;
66399;Laerm;54877;51.504;3.894;2023-04-04T13:02:04;39.37;34.62;53.85;;
66399;Laerm;54877;51.504;3.894;2023-04-04T13:04:32;48.01;34.67;65.11;;
66399;Laerm;54877;51.504;3.894;2023-04-04T13:06:57;42.47;33.98;62.00;;
66399;Laerm;54877;51.504;3.894;2023-04-04T13:09:24;39.22;34.56;53.45;;
66399;Laerm;54877;51.504;3.894;2023-04-04T13:12:02;44.78;34.70;59.88;;
66399;Laerm;54877;51.504;3.894;2023-04-04T13:15:01;43.12;35.42;65.69;;
66399;Laerm;54877;51.504;3.894;2023-04-04T13:17:43;43.20;39.57;51.03;;
66399;Laerm;54877;51.504;3.894;2023-04-04T13:20:10;43.89;38.49;57.39;;
66399;Laerm;54877;51.504;3.894;2023-04-04T13:22:36;44.51;39.39;62.90;;
66399;Laerm;54877;51.504;3.894;2023-04-04T13:25:05;42.43;34.80;49.77;;
66399;Laerm;54877;51.504;3.894;2023-04-04T13:27:31;40.86;34.95;58.76;;
66399;Laerm;54877;51.504;3.894;2023-04-04T13:29:56;40.62;34.52;58.75;;
66399;Laerm;54877;51.504;3.894;2023-04-04T13:32:21;39.54;34.44;60.07;;
66399;Laerm;54877;51.504;3.894;2023-04-04T13:34:47;36.01;34.18;53.57;;
66399;Laerm;54877;51.504;3.894;2023-04-04T13:37:12;35.85;34.18;52.05;;
66399;Laerm;54877;51.504;3.894;2023-04-04T13:39:37;40.68;34.15;57.48;;
66399;Laerm;54877;51.504;3.894;2023-04-04T13:42:03;42.41;34.16;57.16;;
66399;Laerm;54877;51.504;3.894;2023-04-04T13:44:28;45.34;34.34;62.77;;
66399;Laerm;54877;51.504;3.894;2023-04-04T13:46:53;36.84;34.10;45.33;;
66399;Laerm;54877;51.504;3.894;2023-04-04T13:49:19;47.01;34.22;65.13;;
66399;Laerm;54877;51.504;3.894;2023-04-04T13:51:45;36.73;34.20;47.15;;
66399;Laerm;54877;51.504;3.894;2023-04-04T13:54:11;36.34;34.25;52.17;;
66399;Laerm;54877;51.504;3.894;2023-04-04T13:56:36;39.88;34.11;56.10;;
66399;Laerm;54877;51.504;3.894;2023-04-04T13:59:01;37.74;34.13;55.40;;
66399;Laerm;54877;51.504;3.894;2023-04-04T14:01:27;43.72;34.34;61.04;;
66399;Laerm;54877;51.504;3.894;2023-04-04T14:03:53;39.52;34.06;67.95;;
66399;Laerm;54877;51.504;3.894;2023-04-04T14:06:18;46.39;34.10;63.16;;